Saint Louis, MO

7:12 AM CDT on October 02, 2014 (GMT -0500)
Webster Groves | Change Station
CLOSE
Current Station
Personal Weather Station
Location: Webster Groves, MO
Elevation: 571 ft
Nearby Weather Stations

Elev 571 ft 38.59 °N, 90.35 °W | Updated 2 minutes ago

Overcast
Overcast
66.7 °F
Feels Like 66.7 °F
N
0.0
Wind Variable Wind from NNE

Today
High -- | Low -- °F
--% Chance of Precip.
Yesterday
High -- | Low -- °F
Precip. -- in
6:58 AM 6:42 PM
First Quarter, 58% visible
Pressure 29.87 in
Visibility 10.0 miles
Clouds Few 600 ft
Overcast 2800 ft
Dew Point 67 °F
Humidity 100%
Rainfall 0.20 in
Snow Depth Not available.
UV 0 out of 12
Pollen 2.10 out of 12
Ozone Good
PM2.5 Good
Flu Activity Not available.
METAR KSTL 021151Z 31006KT 10SM FEW006 OVC028 20/18 A2991 RMK AO2 RAE03B23E33 PRESRR SLP115 OCNL LTGIC DSNT NW CB DSNT NW MOV NE P0000 60027 70058 T02000183 10217 20194 53008

More Conditions Fewer Conditions

Pressure 29.87 in
Visibility 10.0 miles
Clouds Few 600 ft
Overcast 2800 ft
Dew Point 67 °F
Humidity 100%
Rainfall 0.20 in
Snow Depth Not available.
UV 0 out of 12
Pollen 2.10 out of 12
Ozone Good
PM2.5 Good
Flu Activity Not available.
METAR KSTL 021151Z 31006KT 10SM FEW006 OVC028 20/18 A2991 RMK AO2 RAE03B23E33 PRESRR SLP115 OCNL LTGIC DSNT NW CB DSNT NW MOV NE P0000 60027 70058 T02000183 10217 20194 53008

More Conditions Fewer Conditions

10-Day Weather Forecast

Almanac

Astronomy

Oct. 02, 2014 Rise Set
Actual Time 6:58 AM CDT 6:42 PM CDT
Civil Twilight 6:31 AM CDT 7:09 PM CDT
Nautical Twilight 6:00 AM CDT 7:39 PM CDT
Astronomical Twilight 5:29 AM CDT 8:10 PM CDT
Moon 2:45 PM CDT 12:19 AM CDT
Length of Visible Light 12h 37m
Length of Day
11h 44m
Tomorrow will be 2m 28s shorter.
First Quarter, 58% of the Moon is Illuminated
Today
First Quarter
Oct 8
Full
Oct 15
Last Quarter
Oct 23
New
Oct 30
First Quarter

Today's Extremes

State Highs State Lows

Community

WunderPhotos

Upload Photos

1,758,223 photos uploaded!

WunderBlogs® & News

Nearby

Air Quality

  Air Quality AQ Index Pollutant
Yesterday Moderate
PM2.5
Yesterday Good
OZONE
Current Good
PM2.5
Current Good
OZONE
Thursday Good
PM2.5

Snow Depth

Station Depth Elevation
No new snow has been reported.

Earthquake Activity

City Distance Mag. Time & Date
No recent earthquake activity has been reported nearby.
Minimum magnitude displayed is 2.5.

Coastal Water Temperatures

Place Temperature
No Stations Reporting

Nearby Weather Stations